sensor_id;sensor_type;location;lat;lon;timestamp;P1;durP1;ratioP1;P2;durP2;ratioP2
11488;SDS011;5801;50.804;12.638;2023-02-28T00:00:32;5.22;;;1.35;;
11488;SDS011;5801;50.804;12.638;2023-02-28T00:02:58;1.90;;;1.73;;
11488;SDS011;5801;50.804;12.638;2023-02-28T00:05:25;3.13;;;1.60;;
11488;SDS011;5801;50.804;12.638;2023-02-28T00:07:52;2.22;;;1.38;;
11488;SDS011;5801;50.804;12.638;2023-02-28T00:10:19;1.83;;;1.52;;
11488;SDS011;5801;50.804;12.638;2023-02-28T00:12:48;2.55;;;1.67;;
11488;SDS011;5801;50.804;12.638;2023-02-28T00:15:13;5.45;;;1.58;;
11488;SDS011;5801;50.804;12.638;2023-02-28T00:17:39;12.10;;;1.10;;
11488;SDS011;5801;50.804;12.638;2023-02-28T00:20:05;1.25;;;1.15;;
11488;SDS011;5801;50.804;12.638;2023-02-28T00:22:38;6.40;;;1.67;;
11488;SDS011;5801;50.804;12.638;2023-02-28T00:25:05;1.52;;;1.40;;
11488;SDS011;5801;50.804;12.638;2023-02-28T00:27:32;1.95;;;0.98;;
11488;SDS011;5801;50.804;12.638;2023-02-28T00:29:59;1.95;;;1.33;;
11488;SDS011;5801;50.804;12.638;2023-02-28T00:32:25;1.05;;;0.93;;
11488;SDS011;5801;50.804;12.638;2023-02-28T00:34:51;2.90;;;1.05;;
11488;SDS011;5801;50.804;12.638;2023-02-28T00:37:17;4.90;;;1.88;;
11488;SDS011;5801;50.804;12.638;2023-02-28T00:39:43;2.58;;;1.92;;
11488;SDS011;5801;50.804;12.638;2023-02-28T00:42:08;3.20;;;1.58;;
11488;SDS011;5801;50.804;12.638;2023-02-28T00:44:34;1.30;;;1.08;;
11488;SDS011;5801;50.804;12.638;2023-02-28T00:47:00;2.15;;;1.15;;
11488;SDS011;5801;50.804;12.638;2023-02-28T00:49:26;1.60;;;1.50;;
11488;SDS011;5801;50.804;12.638;2023-02-28T00:51:52;1.52;;;1.27;;
11488;SDS011;5801;50.804;12.638;2023-02-28T00:54:18;2.00;;;1.77;;
11488;SDS011;5801;50.804;12.638;2023-02-28T00:56:44;7.43;;;1.60;;
11488;SDS011;5801;50.804;12.638;2023-02-28T00:59:10;1.98;;;1.88;;
11488;SDS011;5801;50.804;12.638;2023-02-28T01:01:36;1.70;;;1.55;;
11488;SDS011;5801;50.804;12.638;2023-02-28T01:04:02;0.93;;;0.93;;
11488;SDS011;5801;50.804;12.638;2023-02-28T01:06:28;0.95;;;0.95;;
11488;SDS011;5801;50.804;12.638;2023-02-28T01:08:54;2.00;;;1.77;;
11488;SDS011;5801;50.804;12.638;2023-02-28T01:11:20;4.50;;;1.60;;
11488;SDS011;5801;50.804;12.638;2023-02-28T01:13:46;2.15;;;1.95;;
11488;SDS011;5801;50.804;12.638;2023-02-28T01:16:12;2.28;;;2.00;;
11488;SDS011;5801;50.804;12.638;2023-02-28T01:18:38;1.42;;;1.35;;
11488;SDS011;5801;50.804;12.638;2023-02-28T01:21:04;4.30;;;1.55;;
11488;SDS011;5801;50.804;12.638;2023-02-28T01:23:31;1.83;;;1.33;;
11488;SDS011;5801;50.804;12.638;2023-02-28T01:25:58;1.15;;;1.10;;
11488;SDS011;5801;50.804;12.638;2023-02-28T01:28:29;1.33;;;1.23;;
11488;SDS011;5801;50.804;12.638;2023-02-28T01:30:55;2.70;;;1.55;;
11488;SDS011;5801;50.804;12.638;2023-02-28T01:33:21;1.95;;;1.80;;
11488;SDS011;5801;50.804;12.638;2023-02-28T01:35:47;3.72;;;2.42;;
11488;SDS011;5801;50.804;12.638;2023-02-28T01:38:12;3.05;;;1.70;;
11488;SDS011;5801;50.804;12.638;2023-02-28T01:40:38;3.60;;;2.13;;
11488;SDS011;5801;50.804;12.638;2023-02-28T01:43:07;1.65;;;1.13;;
11488;SDS011;5801;50.804;12.638;2023-02-28T01:45:44;1.20;;;1.10;;
11488;SDS011;5801;50.804;12.638;2023-02-28T01:48:09;2.75;;;2.30;;
11488;SDS011;5801;50.804;12.638;2023-02-28T01:50:37;1.95;;;1.73;;
11488;SDS011;5801;50.804;12.638;2023-02-28T01:53:06;3.65;;;1.85;;
11488;SDS011;5801;50.804;12.638;2023-02-28T01:55:37;1.85;;;1.75;;
11488;SDS011;5801;50.804;12.638;2023-02-28T01:58:04;1.20;;;1.20;;
11488;SDS011;5801;50.804;12.638;2023-02-28T02:00:31;1.35;;;1.25;;
11488;SDS011;5801;50.804;12.638;2023-02-28T02:02:58;2.03;;;1.58;;
11488;SDS011;5801;50.804;12.638;2023-02-28T02:05:30;2.40;;;1.23;;
11488;SDS011;5801;50.804;12.638;2023-02-28T02:08:03;2.88;;;2.40;;
11488;SDS011;5801;50.804;12.638;2023-02-28T02:10:32;2.22;;;1.20;;
11488;SDS011;5801;50.804;12.638;2023-02-28T02:25:25;1.65;;;1.38;;
11488;SDS011;5801;50.804;12.638;2023-02-28T02:28:17;1.85;;;1.10;;
11488;SDS011;5801;50.804;12.638;2023-02-28T02:33:45;2.13;;;1.42;;
11488;SDS011;5801;50.804;12.638;2023-02-28T02:36:38;2.95;;;1.42;;
11488;SDS011;5801;50.804;12.638;2023-02-28T02:40:03;7.45;;;1.85;;
11488;SDS011;5801;50.804;12.638;2023-02-28T02:42:03;2.60;;;2.00;;
11488;SDS011;5801;50.804;12.638;2023-02-28T02:44:48;3.33;;;2.30;;
11488;SDS011;5801;50.804;12.638;2023-02-28T02:47:19;1.33;;;1.23;;
11488;SDS011;5801;50.804;12.638;2023-02-28T02:49:50;1.42;;;1.02;;
11488;SDS011;5801;50.804;12.638;2023-02-28T02:52:20;2.03;;;1.42;;
11488;SDS011;5801;50.804;12.638;2023-02-28T02:54:50;1.88;;;1.38;;
11488;SDS011;5801;50.804;12.638;2023-02-28T02:57:26;1.42;;;1.33;;
11488;SDS011;5801;50.804;12.638;2023-02-28T02:59:58;2.00;;;1.90;;
11488;SDS011;5801;50.804;12.638;2023-02-28T03:02:26;2.55;;;1.65;;
11488;SDS011;5801;50.804;12.638;2023-02-28T03:04:59;3.13;;;2.40;;
11488;SDS011;5801;50.804;12.638;2023-02-28T03:07:28;1.60;;;1.50;;
11488;SDS011;5801;50.804;12.638;2023-02-28T03:09:55;3.40;;;1.75;;
11488;SDS011;5801;50.804;12.638;2023-02-28T03:12:22;2.90;;;2.65;;
11488;SDS011;5801;50.804;12.638;2023-02-28T03:14:56;2.70;;;2.05;;
11488;SDS011;5801;50.804;12.638;2023-02-28T03:18:03;1.95;;;1.77;;
11488;SDS011;5801;50.804;12.638;2023-02-28T03:20:35;1.67;;;1.58;;
11488;SDS011;5801;50.804;12.638;2023-02-28T03:23:22;2.05;;;1.80;;
11488;SDS011;5801;50.804;12.638;2023-02-28T03:26:04;1.48;;;1.38;;
11488;SDS011;5801;50.804;12.638;2023-02-28T03:28:43;1.85;;;1.75;;
11488;SDS011;5801;50.804;12.638;2023-02-28T03:31:25;1.52;;;1.42;;
11488;SDS011;5801;50.804;12.638;2023-02-28T03:34:10;3.58;;;1.60;;
11488;SDS011;5801;50.804;12.638;2023-02-28T03:36:46;1.88;;;1.35;;
11488;SDS011;5801;50.804;12.638;2023-02-28T03:39:19;1.48;;;1.30;;
11488;SDS011;5801;50.804;12.638;2023-02-28T03:41:52;1.65;;;1.55;;
11488;SDS011;5801;50.804;12.638;2023-02-28T03:44:28;4.30;;;3.03;;
11488;SDS011;5801;50.804;12.638;2023-02-28T03:47:03;3.33;;;2.05;;
11488;SDS011;5801;50.804;12.638;2023-02-28T03:49:36;3.08;;;2.33;;
11488;SDS011;5801;50.804;12.638;2023-02-28T03:52:34;4.50;;;3.13;;
11488;SDS011;5801;50.804;12.638;2023-02-28T03:55:05;2.35;;;2.03;;
11488;SDS011;5801;50.804;12.638;2023-02-28T03:57:40;2.80;;;2.60;;
11488;SDS011;5801;50.804;12.638;2023-02-28T04:00:21;4.97;;;3.05;;
11488;SDS011;5801;50.804;12.638;2023-02-28T04:02:54;1.80;;;1.70;;
11488;SDS011;5801;50.804;12.638;2023-02-28T04:05:21;3.75;;;1.73;;
11488;SDS011;5801;50.804;12.638;2023-02-28T04:07:47;2.75;;;1.83;;
11488;SDS011;5801;50.804;12.638;2023-02-28T04:10:13;3.17;;;2.63;;
11488;SDS011;5801;50.804;12.638;2023-02-28T04:12:40;2.40;;;2.20;;
11488;SDS011;5801;50.804;12.638;2023-02-28T04:15:06;4.10;;;1.98;;
11488;SDS011;5801;50.804;12.638;2023-02-28T04:17:32;8.70;;;2.50;;
11488;SDS011;5801;50.804;12.638;2023-02-28T04:19:58;2.67;;;2.42;;
11488;SDS011;5801;50.804;12.638;2023-02-28T04:22:24;3.25;;;1.90;;
11488;SDS011;5801;50.804;12.638;2023-02-28T04:24:53;4.72;;;2.10;;
11488;SDS011;5801;50.804;12.638;2023-02-28T04:27:19;3.05;;;2.72;;
11488;SDS011;5801;50.804;12.638;2023-02-28T04:29:45;3.63;;;2.60;;
11488;SDS011;5801;50.804;12.638;2023-02-28T04:32:11;3.45;;;2.67;;
11488;SDS011;5801;50.804;12.638;2023-02-28T04:34:37;2.47;;;2.22;;
11488;SDS011;5801;50.804;12.638;2023-02-28T04:37:03;3.85;;;2.90;;
11488;SDS011;5801;50.804;12.638;2023-02-28T04:39:29;6.03;;;2.38;;
11488;SDS011;5801;50.804;12.638;2023-02-28T04:41:55;5.18;;;2.58;;
11488;SDS011;5801;50.804;12.638;2023-02-28T04:44:21;3.88;;;2.58;;
11488;SDS011;5801;50.804;12.638;2023-02-28T04:46:48;12.35;;;2.40;;
11488;SDS011;5801;50.804;12.638;2023-02-28T04:49:14;4.90;;;3.70;;
11488;SDS011;5801;50.804;12.638;2023-02-28T04:51:40;3.90;;;2.85;;
11488;SDS011;5801;50.804;12.638;2023-02-28T04:54:06;8.63;;;3.25;;
11488;SDS011;5801;50.804;12.638;2023-02-28T04:56:32;8.70;;;4.38;;
11488;SDS011;5801;50.804;12.638;2023-02-28T04:58:58;9.13;;;5.88;;
11488;SDS011;5801;50.804;12.638;2023-02-28T05:01:27;4.32;;;2.50;;
11488;SDS011;5801;50.804;12.638;2023-02-28T05:03:56;2.53;;;1.90;;
11488;SDS011;5801;50.804;12.638;2023-02-28T05:06:23;3.22;;;2.88;;
11488;SDS011;5801;50.804;12.638;2023-02-28T05:08:50;6.65;;;3.55;;
11488;SDS011;5801;50.804;12.638;2023-02-28T05:11:20;3.00;;;2.78;;
11488;SDS011;5801;50.804;12.638;2023-02-28T05:13:51;4.25;;;3.42;;
11488;SDS011;5801;50.804;12.638;2023-02-28T05:16:17;6.72;;;4.18;;
11488;SDS011;5801;50.804;12.638;2023-02-28T05:18:43;6.80;;;4.10;;
11488;SDS011;5801;50.804;12.638;2023-02-28T05:24:16;14.65;;;6.88;;
11488;SDS011;5801;50.804;12.638;2023-02-28T05:26:47;5.18;;;3.42;;
11488;SDS011;5801;50.804;12.638;2023-02-28T05:29:14;3.10;;;2.80;;
11488;SDS011;5801;50.804;12.638;2023-02-28T05:31:39;19.23;;;9.63;;
11488;SDS011;5801;50.804;12.638;2023-02-28T05:34:05;6.13;;;4.95;;
11488;SDS011;5801;50.804;12.638;2023-02-28T05:36:31;7.22;;;3.60;;
11488;SDS011;5801;50.804;12.638;2023-02-28T05:38:56;9.10;;;3.83;;
11488;SDS011;5801;50.804;12.638;2023-02-28T05:41:22;4.00;;;3.03;;
11488;SDS011;5801;50.804;12.638;2023-02-28T05:43:48;8.90;;;3.55;;
11488;SDS011;5801;50.804;12.638;2023-02-28T05:46:14;9.20;;;3.88;;
11488;SDS011;5801;50.804;12.638;2023-02-28T05:48:41;4.88;;;3.85;;
11488;SDS011;5801;50.804;12.638;2023-02-28T05:51:08;3.45;;;3.10;;
11488;SDS011;5801;50.804;12.638;2023-02-28T05:53:34;15.18;;;4.80;;
11488;SDS011;5801;50.804;12.638;2023-02-28T05:56:00;12.50;;;5.90;;
11488;SDS011;5801;50.804;12.638;2023-02-28T05:58:26;8.50;;;4.97;;
11488;SDS011;5801;50.804;12.638;2023-02-28T06:00:55;32.15;;;17.20;;
11488;SDS011;5801;50.804;12.638;2023-02-28T06:03:24;13.45;;;7.07;;
11488;SDS011;5801;50.804;12.638;2023-02-28T06:05:50;4.47;;;3.22;;
11488;SDS011;5801;50.804;12.638;2023-02-28T06:08:16;5.88;;;3.60;;
11488;SDS011;5801;50.804;12.638;2023-02-28T06:10:41;6.43;;;2.75;;
11488;SDS011;5801;50.804;12.638;2023-02-28T06:13:07;4.40;;;3.50;;
11488;SDS011;5801;50.804;12.638;2023-02-28T06:15:33;7.38;;;3.88;;
11488;SDS011;5801;50.804;12.638;2023-02-28T06:17:59;8.18;;;4.25;;
11488;SDS011;5801;50.804;12.638;2023-02-28T06:20:25;4.18;;;2.42;;
11488;SDS011;5801;50.804;12.638;2023-02-28T06:22:56;5.93;;;4.10;;
11488;SDS011;5801;50.804;12.638;2023-02-28T06:25:23;7.10;;;4.43;;
11488;SDS011;5801;50.804;12.638;2023-02-28T06:27:49;3.78;;;3.05;;
11488;SDS011;5801;50.804;12.638;2023-02-28T06:30:15;5.93;;;3.05;;
11488;SDS011;5801;50.804;12.638;2023-02-28T06:32:41;7.43;;;3.50;;
11488;SDS011;5801;50.804;12.638;2023-02-28T06:35:07;4.63;;;3.33;;
11488;SDS011;5801;50.804;12.638;2023-02-28T06:37:33;5.97;;;3.45;;
11488;SDS011;5801;50.804;12.638;2023-02-28T06:39:59;8.85;;;4.25;;
11488;SDS011;5801;50.804;12.638;2023-02-28T06:42:25;5.38;;;3.75;;
11488;SDS011;5801;50.804;12.638;2023-02-28T06:44:54;4.93;;;4.00;;
11488;SDS011;5801;50.804;12.638;2023-02-28T06:47:20;5.55;;;3.53;;
11488;SDS011;5801;50.804;12.638;2023-02-28T06:49:46;10.63;;;4.78;;
11488;SDS011;5801;50.804;12.638;2023-02-28T06:52:11;7.65;;;5.60;;
11488;SDS011;5801;50.804;12.638;2023-02-28T06:54:37;6.88;;;3.95;;
11488;SDS011;5801;50.804;12.638;2023-02-28T06:57:03;3.25;;;2.92;;
11488;SDS011;5801;50.804;12.638;2023-02-28T06:59:29;5.38;;;4.28;;
11488;SDS011;5801;50.804;12.638;2023-02-28T07:01:55;6.80;;;3.47;;
11488;SDS011;5801;50.804;12.638;2023-02-28T07:04:21;9.88;;;5.53;;
11488;SDS011;5801;50.804;12.638;2023-02-28T07:06:47;4.95;;;3.70;;
11488;SDS011;5801;50.804;12.638;2023-02-28T07:09:12;10.15;;;4.63;;
11488;SDS011;5801;50.804;12.638;2023-02-28T07:11:39;6.72;;;4.22;;
11488;SDS011;5801;50.804;12.638;2023-02-28T07:14:05;6.53;;;4.30;;
11488;SDS011;5801;50.804;12.638;2023-02-28T07:16:31;8.07;;;4.88;;
11488;SDS011;5801;50.804;12.638;2023-02-28T07:18:57;5.45;;;4.20;;
11488;SDS011;5801;50.804;12.638;2023-02-28T07:21:23;8.80;;;4.32;;
11488;SDS011;5801;50.804;12.638;2023-02-28T07:23:49;9.85;;;4.70;;
11488;SDS011;5801;50.804;12.638;2023-02-28T07:26:15;11.65;;;5.05;;
11488;SDS011;5801;50.804;12.638;2023-02-28T07:28:43;5.88;;;4.38;;
11488;SDS011;5801;50.804;12.638;2023-02-28T07:31:11;6.30;;;4.60;;
11488;SDS011;5801;50.804;12.638;2023-02-28T07:33:38;7.60;;;4.30;;
11488;SDS011;5801;50.804;12.638;2023-02-28T07:36:05;10.43;;;4.82;;
11488;SDS011;5801;50.804;12.638;2023-02-28T07:38:33;11.07;;;5.47;;
11488;SDS011;5801;50.804;12.638;2023-02-28T07:41:00;10.73;;;6.32;;
11488;SDS011;5801;50.804;12.638;2023-02-28T07:43:29;9.88;;;4.50;;
11488;SDS011;5801;50.804;12.638;2023-02-28T07:45:55;10.40;;;5.85;;
11488;SDS011;5801;50.804;12.638;2023-02-28T07:48:20;8.02;;;4.22;;
11488;SDS011;5801;50.804;12.638;2023-02-28T07:50:53;8.50;;;4.07;;
11488;SDS011;5801;50.804;12.638;2023-02-28T07:53:22;6.20;;;3.60;;
11488;SDS011;5801;50.804;12.638;2023-02-28T07:55:48;5.47;;;3.88;;
11488;SDS011;5801;50.804;12.638;2023-02-28T07:58:14;6.60;;;3.90;;
11488;SDS011;5801;50.804;12.638;2023-02-28T08:00:40;9.20;;;4.35;;
11488;SDS011;5801;50.804;12.638;2023-02-28T08:03:06;6.90;;;4.20;;
11488;SDS011;5801;50.804;12.638;2023-02-28T08:05:37;5.53;;;3.88;;
11488;SDS011;5801;50.804;12.638;2023-02-28T08:08:04;6.88;;;3.85;;
11488;SDS011;5801;50.804;12.638;2023-02-28T08:10:29;9.43;;;4.50;;
11488;SDS011;5801;50.804;12.638;2023-02-28T08:12:55;4.82;;;3.50;;
11488;SDS011;5801;50.804;12.638;2023-02-28T08:15:21;7.80;;;4.78;;
11488;SDS011;5801;50.804;12.638;2023-02-28T08:17:47;5.85;;;4.38;;
11488;SDS011;5801;50.804;12.638;2023-02-28T08:20:13;9.85;;;3.70;;
11488;SDS011;5801;50.804;12.638;2023-02-28T08:22:39;9.80;;;4.72;;
11488;SDS011;5801;50.804;12.638;2023-02-28T08:25:05;6.57;;;3.40;;
11488;SDS011;5801;50.804;12.638;2023-02-28T08:27:32;5.60;;;3.20;;
11488;SDS011;5801;50.804;12.638;2023-02-28T08:29:57;5.60;;;3.63;;
11488;SDS011;5801;50.804;12.638;2023-02-28T08:32:23;9.27;;;5.05;;
11488;SDS011;5801;50.804;12.638;2023-02-28T08:34:49;8.32;;;4.45;;
11488;SDS011;5801;50.804;12.638;2023-02-28T08:37:14;7.85;;;4.93;;
11488;SDS011;5801;50.804;12.638;2023-02-28T08:39:40;7.20;;;4.85;;
11488;SDS011;5801;50.804;12.638;2023-02-28T08:42:06;8.05;;;4.35;;
11488;SDS011;5801;50.804;12.638;2023-02-28T08:44:32;6.10;;;3.58;;
11488;SDS011;5801;50.804;12.638;2023-02-28T08:46:58;8.55;;;3.65;;
11488;SDS011;5801;50.804;12.638;2023-02-28T08:49:24;5.30;;;3.88;;
11488;SDS011;5801;50.804;12.638;2023-02-28T08:51:50;6.55;;;3.90;;
11488;SDS011;5801;50.804;12.638;2023-02-28T08:54:16;6.43;;;4.38;;
11488;SDS011;5801;50.804;12.638;2023-02-28T08:56:44;5.95;;;3.75;;
11488;SDS011;5801;50.804;12.638;2023-02-28T08:59:10;8.50;;;3.92;;
11488;SDS011;5801;50.804;12.638;2023-02-28T09:01:36;5.93;;;3.42;;
11488;SDS011;5801;50.804;12.638;2023-02-28T09:04:02;5.40;;;3.70;;
11488;SDS011;5801;50.804;12.638;2023-02-28T09:06:28;3.88;;;3.05;;
11488;SDS011;5801;50.804;12.638;2023-02-28T09:08:57;4.15;;;3.28;;
11488;SDS011;5801;50.804;12.638;2023-02-28T09:11:24;5.85;;;3.75;;
11488;SDS011;5801;50.804;12.638;2023-02-28T09:13:50;7.35;;;4.13;;
11488;SDS011;5801;50.804;12.638;2023-02-28T09:16:15;5.82;;;3.45;;
11488;SDS011;5801;50.804;12.638;2023-02-28T09:18:42;5.38;;;4.07;;
11488;SDS011;5801;50.804;12.638;2023-02-28T09:21:09;5.93;;;3.30;;
11488;SDS011;5801;50.804;12.638;2023-02-28T09:23:39;5.95;;;3.47;;
11488;SDS011;5801;50.804;12.638;2023-02-28T09:26:05;7.72;;;3.75;;
11488;SDS011;5801;50.804;12.638;2023-02-28T09:28:31;5.40;;;3.83;;
11488;SDS011;5801;50.804;12.638;2023-02-28T09:30:56;5.70;;;3.65;;
11488;SDS011;5801;50.804;12.638;2023-02-28T09:33:23;5.97;;;3.97;;
11488;SDS011;5801;50.804;12.638;2023-02-28T09:35:49;6.95;;;4.05;;
11488;SDS011;5801;50.804;12.638;2023-02-28T09:38:16;8.02;;;3.88;;
11488;SDS011;5801;50.804;12.638;2023-02-28T09:40:49;7.43;;;3.55;;
11488;SDS011;5801;50.804;12.638;2023-02-28T09:43:18;4.18;;;3.20;;
11488;SDS011;5801;50.804;12.638;2023-02-28T09:45:48;6.60;;;3.60;;
11488;SDS011;5801;50.804;12.638;2023-02-28T09:48:24;6.43;;;3.28;;
11488;SDS011;5801;50.804;12.638;2023-02-28T09:51:04;4.28;;;3.00;;
11488;SDS011;5801;50.804;12.638;2023-02-28T09:53:37;7.90;;;3.75;;
11488;SDS011;5801;50.804;12.638;2023-02-28T09:56:07;4.63;;;3.13;;
11488;SDS011;5801;50.804;12.638;2023-02-28T09:58:40;6.38;;;3.10;;
11488;SDS011;5801;50.804;12.638;2023-02-28T10:03:58;7.93;;;3.60;;
11488;SDS011;5801;50.804;12.638;2023-02-28T10:06:34;8.15;;;3.75;;
11488;SDS011;5801;50.804;12.638;2023-02-28T10:09:10;4.60;;;2.80;;
11488;SDS011;5801;50.804;12.638;2023-02-28T10:11:40;5.63;;;3.25;;
11488;SDS011;5801;50.804;12.638;2023-02-28T10:14:12;7.00;;;3.83;;
11488;SDS011;5801;50.804;12.638;2023-02-28T10:16:45;9.80;;;3.83;;
11488;SDS011;5801;50.804;12.638;2023-02-28T10:22:23;5.25;;;3.05;;
11488;SDS011;5801;50.804;12.638;2023-02-28T10:24:53;7.68;;;3.83;;
11488;SDS011;5801;50.804;12.638;2023-02-28T10:29:48;5.93;;;4.22;;
11488;SDS011;5801;50.804;12.638;2023-02-28T10:32:28;6.18;;;3.70;;
11488;SDS011;5801;50.804;12.638;2023-02-28T10:37:34;5.03;;;3.42;;
11488;SDS011;5801;50.804;12.638;2023-02-28T10:40:04;6.88;;;3.30;;
11488;SDS011;5801;50.804;12.638;2023-02-28T10:42:32;5.43;;;3.22;;
11488;SDS011;5801;50.804;12.638;2023-02-28T10:48:02;3.92;;;3.00;;
11488;SDS011;5801;50.804;12.638;2023-02-28T10:55:40;7.30;;;3.40;;
11488;SDS011;5801;50.804;12.638;2023-02-28T10:58:25;4.45;;;3.08;;
11488;SDS011;5801;50.804;12.638;2023-02-28T11:01:10;3.45;;;2.88;;
11488;SDS011;5801;50.804;12.638;2023-02-28T11:03:48;7.53;;;3.78;;
11488;SDS011;5801;50.804;12.638;2023-02-28T11:06:35;5.35;;;3.15;;
11488;SDS011;5801;50.804;12.638;2023-02-28T11:09:02;4.35;;;3.22;;
11488;SDS011;5801;50.804;12.638;2023-02-28T11:11:31;12.73;;;3.75;;
11488;SDS011;5801;50.804;12.638;2023-02-28T11:14:15;4.93;;;3.63;;
11488;SDS011;5801;50.804;12.638;2023-02-28T11:16:47;5.40;;;3.33;;
11488;SDS011;5801;50.804;12.638;2023-02-28T11:19:25;6.28;;;3.53;;
11488;SDS011;5801;50.804;12.638;2023-02-28T11:21:59;5.75;;;3.47;;
11488;SDS011;5801;50.804;12.638;2023-02-28T11:24:30;5.47;;;3.67;;
11488;SDS011;5801;50.804;12.638;2023-02-28T11:27:02;6.00;;;3.88;;
11488;SDS011;5801;50.804;12.638;2023-02-28T11:29:29;7.90;;;3.50;;
11488;SDS011;5801;50.804;12.638;2023-02-28T11:34:36;5.85;;;3.58;;
11488;SDS011;5801;50.804;12.638;2023-02-28T11:37:03;6.68;;;3.60;;
11488;SDS011;5801;50.804;12.638;2023-02-28T11:39:32;6.78;;;4.07;;
11488;SDS011;5801;50.804;12.638;2023-02-28T11:42:02;5.35;;;3.45;;
11488;SDS011;5801;50.804;12.638;2023-02-28T11:52:38;5.57;;;3.75;;
11488;SDS011;5801;50.804;12.638;2023-02-28T11:55:49;9.73;;;4.00;;
11488;SDS011;5801;50.804;12.638;2023-02-28T12:07:00;5.65;;;3.97;;
11488;SDS011;5801;50.804;12.638;2023-02-28T12:12:53;6.10;;;4.43;;
11488;SDS011;5801;50.804;12.638;2023-02-28T12:15:45;6.18;;;3.70;;
11488;SDS011;5801;50.804;12.638;2023-02-28T12:24:14;4.60;;;3.63;;
11488;SDS011;5801;50.804;12.638;2023-02-28T12:27:05;8.10;;;3.60;;
11488;SDS011;5801;50.804;12.638;2023-02-28T12:29:43;8.45;;;4.28;;
11488;SDS011;5801;50.804;12.638;2023-02-28T12:32:22;3.95;;;3.20;;
11488;SDS011;5801;50.804;12.638;2023-02-28T12:35:04;7.10;;;4.28;;
11488;SDS011;5801;50.804;12.638;2023-02-28T12:37:52;6.82;;;4.50;;
11488;SDS011;5801;50.804;12.638;2023-02-28T12:40:56;6.60;;;4.32;;
11488;SDS011;5801;50.804;12.638;2023-02-28T12:43:25;10.43;;;4.05;;
11488;SDS011;5801;50.804;12.638;2023-02-28T12:45:58;6.18;;;4.70;;
11488;SDS011;5801;50.804;12.638;2023-02-28T12:48:30;5.90;;;4.30;;
11488;SDS011;5801;50.804;12.638;2023-02-28T12:51:02;6.32;;;4.28;;
11488;SDS011;5801;50.804;12.638;2023-02-28T13:04:29;8.95;;;4.03;;
11488;SDS011;5801;50.804;12.638;2023-02-28T13:07:08;5.60;;;4.25;;
11488;SDS011;5801;50.804;12.638;2023-02-28T13:09:55;7.10;;;4.07;;
11488;SDS011;5801;50.804;12.638;2023-02-28T13:12:23;8.90;;;4.35;;
11488;SDS011;5801;50.804;12.638;2023-02-28T13:14:49;6.88;;;3.80;;
11488;SDS011;5801;50.804;12.638;2023-02-28T13:17:37;6.40;;;4.03;;
11488;SDS011;5801;50.804;12.638;2023-02-28T13:20:14;7.43;;;4.53;;
11488;SDS011;5801;50.804;12.638;2023-02-28T13:22:42;9.65;;;4.50;;
11488;SDS011;5801;50.804;12.638;2023-02-28T13:27:48;5.97;;;3.90;;
11488;SDS011;5801;50.804;12.638;2023-02-28T13:33:29;7.95;;;4.25;;
11488;SDS011;5801;50.804;12.638;2023-02-28T13:38:45;4.75;;;3.45;;
11488;SDS011;5801;50.804;12.638;2023-02-28T13:44:07;7.47;;;3.25;;
11488;SDS011;5801;50.804;12.638;2023-02-28T13:46:36;10.25;;;4.18;;
11488;SDS011;5801;50.804;12.638;2023-02-28T13:49:31;5.80;;;4.03;;
11488;SDS011;5801;50.804;12.638;2023-02-28T13:54:42;9.40;;;4.47;;
11488;SDS011;5801;50.804;12.638;2023-02-28T13:57:35;10.68;;;4.78;;
11488;SDS011;5801;50.804;12.638;2023-02-28T14:00:48;7.95;;;3.45;;
11488;SDS011;5801;50.804;12.638;2023-02-28T14:03:36;9.05;;;4.57;;
11488;SDS011;5801;50.804;12.638;2023-02-28T14:08:51;5.20;;;3.80;;
11488;SDS011;5801;50.804;12.638;2023-02-28T14:11:27;7.63;;;4.03;;
11488;SDS011;5801;50.804;12.638;2023-02-28T14:13:53;8.55;;;3.90;;
11488;SDS011;5801;50.804;12.638;2023-02-28T14:16:23;6.60;;;4.45;;
11488;SDS011;5801;50.804;12.638;2023-02-28T14:18:55;7.80;;;4.43;;
11488;SDS011;5801;50.804;12.638;2023-02-28T14:31:54;5.47;;;4.32;;
11488;SDS011;5801;50.804;12.638;2023-02-28T14:37:05;8.38;;;4.85;;
11488;SDS011;5801;50.804;12.638;2023-02-28T14:39:40;8.60;;;5.13;;
11488;SDS011;5801;50.804;12.638;2023-02-28T14:42:24;9.07;;;4.95;;
11488;SDS011;5801;50.804;12.638;2023-02-28T14:44:58;7.53;;;4.25;;
11488;SDS011;5801;50.804;12.638;2023-02-28T14:47:26;8.90;;;4.63;;
11488;SDS011;5801;50.804;12.638;2023-02-28T14:49:55;9.48;;;5.40;;
11488;SDS011;5801;50.804;12.638;2023-02-28T14:52:23;11.23;;;4.47;;
11488;SDS011;5801;50.804;12.638;2023-02-28T14:54:53;4.95;;;3.92;;
11488;SDS011;5801;50.804;12.638;2023-02-28T14:57:24;5.63;;;4.00;;
11488;SDS011;5801;50.804;12.638;2023-02-28T15:00:09;8.98;;;3.85;;
11488;SDS011;5801;50.804;12.638;2023-02-28T15:02:40;8.00;;;5.57;;
11488;SDS011;5801;50.804;12.638;2023-02-28T15:07:34;9.95;;;5.05;;
11488;SDS011;5801;50.804;12.638;2023-02-28T15:10:08;6.60;;;4.20;;
11488;SDS011;5801;50.804;12.638;2023-02-28T15:12:56;9.75;;;4.68;;
11488;SDS011;5801;50.804;12.638;2023-02-28T15:15:49;8.35;;;5.38;;
11488;SDS011;5801;50.804;12.638;2023-02-28T15:18:30;8.73;;;5.47;;
11488;SDS011;5801;50.804;12.638;2023-02-28T15:23:44;8.52;;;4.65;;
11488;SDS011;5801;50.804;12.638;2023-02-28T15:26:16;11.50;;;4.55;;
11488;SDS011;5801;50.804;12.638;2023-02-28T15:28:48;7.50;;;4.72;;
11488;SDS011;5801;50.804;12.638;2023-02-28T15:31:20;11.52;;;5.18;;
11488;SDS011;5801;50.804;12.638;2023-02-28T15:33:55;7.63;;;4.07;;
11488;SDS011;5801;50.804;12.638;2023-02-28T15:36:25;8.82;;;4.57;;
11488;SDS011;5801;50.804;12.638;2023-02-28T15:38:56;7.63;;;4.43;;
11488;SDS011;5801;50.804;12.638;2023-02-28T15:41:24;7.95;;;4.82;;
11488;SDS011;5801;50.804;12.638;2023-02-28T15:44:13;8.00;;;4.38;;
11488;SDS011;5801;50.804;12.638;2023-02-28T15:46:53;11.63;;;6.68;;
11488;SDS011;5801;50.804;12.638;2023-02-28T15:49:21;8.55;;;5.82;;
11488;SDS011;5801;50.804;12.638;2023-02-28T15:51:48;8.57;;;4.90;;
11488;SDS011;5801;50.804;12.638;2023-02-28T15:54:21;14.32;;;5.20;;
11488;SDS011;5801;50.804;12.638;2023-02-28T15:56:57;7.28;;;5.05;;
11488;SDS011;5801;50.804;12.638;2023-02-28T15:59:27;19.75;;;7.68;;
11488;SDS011;5801;50.804;12.638;2023-02-28T16:07:26;7.68;;;5.70;;
11488;SDS011;5801;50.804;12.638;2023-02-28T16:09:52;15.10;;;6.80;;
11488;SDS011;5801;50.804;12.638;2023-02-28T16:12:19;13.30;;;5.00;;
11488;SDS011;5801;50.804;12.638;2023-02-28T16:14:50;11.90;;;6.22;;
11488;SDS011;5801;50.804;12.638;2023-02-28T16:17:21;12.77;;;6.22;;
11488;SDS011;5801;50.804;12.638;2023-02-28T16:19:49;15.07;;;8.48;;
11488;SDS011;5801;50.804;12.638;2023-02-28T16:22:15;12.75;;;7.22;;
11488;SDS011;5801;50.804;12.638;2023-02-28T16:24:40;10.90;;;5.72;;
11488;SDS011;5801;50.804;12.638;2023-02-28T16:27:06;12.23;;;6.03;;
11488;SDS011;5801;50.804;12.638;2023-02-28T16:29:49;8.32;;;5.40;;
11488;SDS011;5801;50.804;12.638;2023-02-28T16:32:15;7.18;;;5.57;;
11488;SDS011;5801;50.804;12.638;2023-02-28T16:34:42;8.43;;;5.47;;
11488;SDS011;5801;50.804;12.638;2023-02-28T16:37:12;11.98;;;6.05;;
11488;SDS011;5801;50.804;12.638;2023-02-28T16:39:40;8.98;;;5.57;;
11488;SDS011;5801;50.804;12.638;2023-02-28T16:42:07;14.10;;;5.97;;
11488;SDS011;5801;50.804;12.638;2023-02-28T16:44:47;9.45;;;6.80;;
11488;SDS011;5801;50.804;12.638;2023-02-28T16:47:13;12.45;;;6.05;;
11488;SDS011;5801;50.804;12.638;2023-02-28T16:49:38;15.07;;;6.20;;
11488;SDS011;5801;50.804;12.638;2023-02-28T16:52:06;14.93;;;6.72;;
11488;SDS011;5801;50.804;12.638;2023-02-28T16:54:32;14.75;;;8.45;;
11488;SDS011;5801;50.804;12.638;2023-02-28T16:56:58;15.88;;;6.18;;
11488;SDS011;5801;50.804;12.638;2023-02-28T16:59:24;8.48;;;5.35;;
11488;SDS011;5801;50.804;12.638;2023-02-28T17:01:52;9.73;;;5.53;;